AirNav   Air Wisconsin Up To $57,000 Bonus
 
 391 users online  

22PA Uniontown Hospital Heliport
Uniontown, Pennsylvania, USA

GOING TO UNIONTOWN?


FAA INFORMATION EFFECTIVE 22 APRIL 2021

Location

FAA Identifier: 22PA
Lat/Long: 39-54-03.2740N 079-44-41.1590W
39-54.054567N 079-44.685983W
39.9009094,-79.7447664
(estimated)
Elevation: 1115 ft. / 340 m (estimated)
Variation: 09W (2000)
Time zone: UTC -4 (UTC -5 during Standard Time)
Zip code: 15401

Heliport Operations

Heliport use: Private use, MEDICAL
Activation date: 03/1990
Control tower: no
ARTCC: CLEVELAND CENTER
FSS: ALTOONA FLIGHT SERVICE STATION
NOTAMs facility: FDC (NOTAM-D service not available)
Attendance: UNATNDD
Segmented circle: no
Lights: FOR PERIMETER LGTS CALL 412-430-5000

Heliport Communications

CLARKSBURG APPROACH: 119.425
CLARKSBURG DEPARTURE: 119.425
WX AWOS-3P at VVS (5 nm NE): 133.325 (724-626-8745)
WX ASOS at MGW (17 nm SW): 120.675 (304-296-7103)
WX AWOS-3 at FWQ (19 nm N): 118.475 (724-379-5815)
  • APCH/DEP SVC PRVDD BY CLEVELAND ARTCC (ZOB) ON FREQS 124.4/327.1 (ALTOONA RCAG) WHEN CLARKSBURG APCH CTL CLSD.

Nearby radio navigation aids

VOR radial/distance  VOR name  Freq  Var
IHDr262/18.3INDIAN HEAD VORTAC108.2006W
MGWr019/21.3MORGANTOWN VOR/DME111.6005W
AGCr158/26.4ALLEGHENY VOR/DME110.0009W

 
NDB name  Hdg/Dist  Freq  Var  ID
CAMOR008/1.129908WVV ...- ...-
STOYSTOWN264/39.720910WSYS ... -.-- ...

Heliport Services

Runway Information

Helipad H1

Dimensions: 65 x 65 ft. / 20 x 20 m
Surface: asphalt
Runway edge lights: PERIMETER LGTS.
Latitude: 39-54.054567N
Longitude: 079-44.685983W
Elevation: 1115.0 ft.
Traffic pattern: leftleft

Heliport Ownership and Management from official FAA records

Ownership: Privately-owned
Owner: UNIONTOWN HOSPITAL
500 WEST BERKLEY ST
UNIONTOWN, PA 15401
Phone (724) 430-5000
Manager: RANDY HOVATTER
500 WEST BERKLEY ST
UNIONTOWN, PA 15401
DIRECTOR OF FACILITIES MGMT

Additional Remarks

FOR CD CTC JOHNSTOWN APCH AT 814-532-5960, WHEN APCH CLSD CTC CLEVELAND ARTCC AT 440-774-0234.

Instrument Procedures

There are no published instrument procedures at 22PA.

Some nearby airports with instrument procedures:

KVVS - Joseph A Hardy Connellsville Airport (5 nm NE)
KMGW - Morgantown Municipal Airport-Walter L. Bill Hart Field (17 nm SW)
KWAY - Greene County Airport (18 nm W)
KFWQ - Rostraver Airport (19 nm N)
G05 - Finleyville Airpark (24 nm NW)
 
Loc | Ops | Rwys | IFR | FBO | Links
Com | Nav | Svcs | Stats | Notes
Area around 22PA (Uniontown Hospital Heliport)
 
Road maps at: MapQuest Bing Google
 
Aerial photo
No photo
 
Sectional chart

 
Airport distance calculator
Flying to Uniontown Hospital Heliport? Find the distance to fly.

From to 22PA

Sunrise and sunset
Times for 09-May-2021
 Local
(UTC-4)
 Zulu
(UTC)
Morning civil twilight05:4109:41
Sunrise06:1110:11
Sunset20:2000:20
Evening civil twilight20:5000:50

Current date and time
Zulu (UTC)  09-May-2021 07:53:59
Local (UTC-4)  09-May-2021 03:53:59
 
METAR
KVVS 
5nm NE 
090735Z AUTO 00000KT 10SM SCT080 OVC090 05/01 A3012 RMK AO2 T00550013
KMGW 
17nm SW 
090653Z AUTO 00000KT 10SM FEW070 BKN100 OVC120 06/03 A3011 RMK AO2 SLP199 T00560033
KP53 
19nm N 
090656Z AUTO 18004KT 01/M01 A3006 RMK AO1 SLP186 T00111011
TAF
KMGW 
17nm SW 
090520Z 0906/1006 00000KT P6SM BKN150 FM091200 13003KT 5SM -RA OVC025 FM091400 10008KT 5SM BR VCSH OVC025 FM091600 14008G16KT P6SM VCSH BKN030 FM091900 18011G18KT 4SM -RA BR OVC025 FM100400 35005KT 4SM BR VCSH OVC007
NOTAMs
Click for the latest NOTAMs
NOTAMs are issued by the DoD/FAA and will open in a separate window not controlled by AirNav.

 

 
 

Would you like to see your business listed on this page?

 If your business provides an interesting product or service to pilots, flight crews, aircraft, or users of the Uniontown Hospital Heliport, you should consider listing it here.  To start the listing process, click on the button below
 
Add a business
 

Other Pages about Uniontown Hospital Heliport

Update a link
 
Copyright © AirNav, LLC. All rights reserved. Privacy Policy  Contact